Terminal Aerodrome Forecast
Issued by NWS

Home | Current Version | Previous Version | Text Only | Print | Product List | Glossary On
Versions: 1 2 3 4 5 6 7 8 9 10 11 12 13 14 15 16 17 18 19 20 21 22 23 24
804
FTUS44 KLZK 301720
TAFHRO
TAF
KHRO 301720Z 3018/0118 19012G20KT P6SM BKN050 OVC100
      TEMPO 3018/3021 -SHRA BKN040
     FM010000 24012G20KT P6SM SCT025 OVC050
      TEMPO 0110/0114 BKN025
     FM011400 27012G20KT P6SM BKN040=

USA.gov is the U.S. government's official web portal to all federal, state and local government web resources and services.